sensor_id;sensor_type;location;lat;lon;timestamp;pressure;altitude;pressure_sealevel;temperature;humidity
75192;BME280;63771;52.580;9.734;2023-02-11T00:01:25;102746.50;;;4.94;85.28
75192;BME280;63771;52.580;9.734;2023-02-11T00:03:52;102742.88;;;4.92;86.15
75192;BME280;63771;52.580;9.734;2023-02-11T00:06:17;102729.06;;;4.90;86.05
75192;BME280;63771;52.580;9.734;2023-02-11T00:08:43;102722.13;;;4.94;85.95
75192;BME280;63771;52.580;9.734;2023-02-11T00:11:12;102733.84;;;4.94;86.20
75192;BME280;63771;52.580;9.734;2023-02-11T00:13:39;102733.06;;;5.01;85.91
75192;BME280;63771;52.580;9.734;2023-02-11T00:16:09;102736.00;;;4.91;86.68
75192;BME280;63771;52.580;9.734;2023-02-11T00:18:35;102739.91;;;4.89;87.06
75192;BME280;63771;52.580;9.734;2023-02-11T00:21:08;102733.75;;;4.87;86.95
75192;BME280;63771;52.580;9.734;2023-02-11T00:23:34;102739.50;;;4.86;87.01
75192;BME280;63771;52.580;9.734;2023-02-11T00:25:59;102738.88;;;4.81;87.91
75192;BME280;63771;52.580;9.734;2023-02-11T00:28:25;102741.88;;;4.79;88.17
75192;BME280;63771;52.580;9.734;2023-02-11T00:30:57;102760.47;;;4.79;88.46
75192;BME280;63771;52.580;9.734;2023-02-11T00:33:23;102762.81;;;4.78;88.42
75192;BME280;63771;52.580;9.734;2023-02-11T00:35:48;102761.47;;;4.74;88.99
75192;BME280;63771;52.580;9.734;2023-02-11T00:38:14;102769.28;;;4.76;89.18
75192;BME280;63771;52.580;9.734;2023-02-11T00:40:39;102754.31;;;4.77;89.05
75192;BME280;63771;52.580;9.734;2023-02-11T00:43:04;102761.47;;;4.74;89.56
75192;BME280;63771;52.580;9.734;2023-02-11T00:45:30;102761.00;;;4.77;89.85
75192;BME280;63771;52.580;9.734;2023-02-11T00:47:55;102757.81;;;4.72;90.50
75192;BME280;63771;52.580;9.734;2023-02-11T00:50:21;102763.34;;;4.69;90.46
75192;BME280;63771;52.580;9.734;2023-02-11T00:52:47;102764.34;;;4.64;90.96
75192;BME280;63771;52.580;9.734;2023-02-11T00:55:12;102748.75;;;4.61;91.43
75192;BME280;63771;52.580;9.734;2023-02-11T00:57:38;102750.16;;;4.59;91.69
75192;BME280;63771;52.580;9.734;2023-02-11T01:00:04;102739.13;;;4.59;91.90
75192;BME280;63771;52.580;9.734;2023-02-11T01:02:29;102744.69;;;4.56;92.24
75192;BME280;63771;52.580;9.734;2023-02-11T01:04:55;102741.44;;;4.57;92.45
75192;BME280;63771;52.580;9.734;2023-02-11T01:07:20;102740.09;;;4.54;92.74
75192;BME280;63771;52.580;9.734;2023-02-11T01:09:45;102742.94;;;4.50;92.88
75192;BME280;63771;52.580;9.734;2023-02-11T01:12:11;102742.03;;;4.49;92.67
75192;BME280;63771;52.580;9.734;2023-02-11T01:14:36;102725.66;;;4.53;92.49
75192;BME280;63771;52.580;9.734;2023-02-11T01:17:04;102703.81;;;4.53;92.47
75192;BME280;63771;52.580;9.734;2023-02-11T01:19:29;102696.88;;;4.58;92.01
75192;BME280;63771;52.580;9.734;2023-02-11T01:21:55;102702.84;;;4.58;91.71
75192;BME280;63771;52.580;9.734;2023-02-11T01:24:20;102690.19;;;4.58;92.04
75192;BME280;63771;52.580;9.734;2023-02-11T01:26:46;102694.13;;;4.56;92.50
75192;BME280;63771;52.580;9.734;2023-02-11T01:29:11;102695.81;;;4.50;92.67
75192;BME280;63771;52.580;9.734;2023-02-11T01:31:36;102688.25;;;4.50;92.71
75192;BME280;63771;52.580;9.734;2023-02-11T01:34:02;102690.50;;;4.54;92.64
75192;BME280;63771;52.580;9.734;2023-02-11T01:36:27;102659.88;;;4.58;92.07
75192;BME280;63771;52.580;9.734;2023-02-11T01:38:52;102666.06;;;4.60;91.95
75192;BME280;63771;52.580;9.734;2023-02-11T01:41:18;102656.63;;;4.59;92.65
75192;BME280;63771;52.580;9.734;2023-02-11T01:43:46;102640.78;;;4.60;92.32
75192;BME280;63771;52.580;9.734;2023-02-11T01:46:36;102648.06;;;4.64;92.22
75192;BME280;63771;52.580;9.734;2023-02-11T01:49:07;102649.28;;;4.61;92.70
75192;BME280;63771;52.580;9.734;2023-02-11T01:51:41;102647.38;;;4.65;92.46
75192;BME280;63771;52.580;9.734;2023-02-11T01:54:09;102637.94;;;4.64;92.85
75192;BME280;63771;52.580;9.734;2023-02-11T01:56:55;102643.94;;;4.65;92.83
75192;BME280;63771;52.580;9.734;2023-02-11T02:02:15;102623.50;;;4.63;92.61
75192;BME280;63771;52.580;9.734;2023-02-11T02:04:52;102631.91;;;4.69;92.09
75192;BME280;63771;52.580;9.734;2023-02-11T02:07:27;102631.22;;;4.70;92.04
75192;BME280;63771;52.580;9.734;2023-02-11T02:09:59;102634.16;;;4.74;92.10
75192;BME280;63771;52.580;9.734;2023-02-11T02:12:27;102637.81;;;4.76;92.16
75192;BME280;63771;52.580;9.734;2023-02-11T02:15:10;102631.53;;;4.79;91.75
75192;BME280;63771;52.580;9.734;2023-02-11T02:17:49;102623.47;;;4.82;91.44
75192;BME280;63771;52.580;9.734;2023-02-11T02:23:28;102629.78;;;4.91;90.93
75192;BME280;63771;52.580;9.734;2023-02-11T02:29:30;102649.84;;;5.02;90.45
75192;BME280;63771;52.580;9.734;2023-02-11T02:32:22;102639.63;;;5.08;90.31
75192;BME280;63771;52.580;9.734;2023-02-11T02:35:43;102624.63;;;5.09;90.48
75192;BME280;63771;52.580;9.734;2023-02-11T02:41:01;102624.56;;;5.15;89.70
75192;BME280;63771;52.580;9.734;2023-02-11T02:43:29;102610.09;;;5.14;89.52
75192;BME280;63771;52.580;9.734;2023-02-11T02:46:18;102609.19;;;5.13;89.99
75192;BME280;63771;52.580;9.734;2023-02-11T02:48:44;102604.84;;;5.12;90.02
75192;BME280;63771;52.580;9.734;2023-02-11T02:56:47;102615.25;;;5.21;89.71
75192;BME280;63771;52.580;9.734;2023-02-11T03:10:07;102585.31;;;5.24;89.85
75192;BME280;63771;52.580;9.734;2023-02-11T03:12:33;102578.63;;;5.24;89.50
75192;BME280;63771;52.580;9.734;2023-02-11T03:15:04;102584.59;;;5.25;89.65
75192;BME280;63771;52.580;9.734;2023-02-11T03:17:31;102584.09;;;5.28;89.62
75192;BME280;63771;52.580;9.734;2023-02-11T03:19:58;102583.78;;;5.32;89.71
75192;BME280;63771;52.580;9.734;2023-02-11T03:22:26;102576.19;;;5.32;89.61
75192;BME280;63771;52.580;9.734;2023-02-11T03:24:55;102580.34;;;5.31;89.76
75192;BME280;63771;52.580;9.734;2023-02-11T03:27:26;102576.00;;;5.30;89.96
75192;BME280;63771;52.580;9.734;2023-02-11T03:30:00;102562.84;;;5.33;89.70
75192;BME280;63771;52.580;9.734;2023-02-11T03:32:34;102547.97;;;5.29;89.89
75192;BME280;63771;52.580;9.734;2023-02-11T03:35:14;102569.31;;;5.31;89.63
75192;BME280;63771;52.580;9.734;2023-02-11T03:37:58;102576.59;;;5.35;90.02
75192;BME280;63771;52.580;9.734;2023-02-11T03:40:27;102574.50;;;5.38;89.62
75192;BME280;63771;52.580;9.734;2023-02-11T03:42:58;102582.09;;;5.38;89.40
75192;BME280;63771;52.580;9.734;2023-02-11T03:45:26;102578.84;;;5.39;89.93
75192;BME280;63771;52.580;9.734;2023-02-11T03:48:02;102583.38;;;5.41;89.55
75192;BME280;63771;52.580;9.734;2023-02-11T03:50:32;102584.69;;;5.45;89.47
75192;BME280;63771;52.580;9.734;2023-02-11T03:53:00;102584.69;;;5.45;89.46
75192;BME280;63771;52.580;9.734;2023-02-11T03:55:27;102579.84;;;5.46;89.34
75192;BME280;63771;52.580;9.734;2023-02-11T03:57:53;102586.94;;;5.49;89.46
75192;BME280;63771;52.580;9.734;2023-02-11T04:00:19;102596.16;;;5.48;89.33
75192;BME280;63771;52.580;9.734;2023-02-11T04:02:44;102594.00;;;5.52;88.98
75192;BME280;63771;52.580;9.734;2023-02-11T04:05:12;102576.47;;;5.53;89.57
75192;BME280;63771;52.580;9.734;2023-02-11T04:07:38;102579.44;;;5.56;89.21
75192;BME280;63771;52.580;9.734;2023-02-11T04:10:04;102576.19;;;5.57;89.33
75192;BME280;63771;52.580;9.734;2023-02-11T04:12:29;102580.22;;;5.62;88.95
75192;BME280;63771;52.580;9.734;2023-02-11T04:14:55;102576.06;;;5.63;89.26
75192;BME280;63771;52.580;9.734;2023-02-11T04:17:20;102580.66;;;5.65;89.03
75192;BME280;63771;52.580;9.734;2023-02-11T04:19:45;102581.75;;;5.67;89.00
75192;BME280;63771;52.580;9.734;2023-02-11T04:22:11;102580.66;;;5.65;89.14
75192;BME280;63771;52.580;9.734;2023-02-11T04:24:36;102569.72;;;5.59;88.98
75192;BME280;63771;52.580;9.734;2023-02-11T04:27:01;102573.44;;;5.68;88.91
75192;BME280;63771;52.580;9.734;2023-02-11T04:29:27;102569.50;;;5.70;89.20
75192;BME280;63771;52.580;9.734;2023-02-11T04:31:53;102569.50;;;5.70;89.08
75192;BME280;63771;52.580;9.734;2023-02-11T04:34:18;102584.69;;;5.70;89.38
75192;BME280;63771;52.580;9.734;2023-02-11T04:36:43;102580.00;;;5.73;89.07
75192;BME280;63771;52.580;9.734;2023-02-11T04:39:09;102578.19;;;5.72;89.02
75192;BME280;63771;52.580;9.734;2023-02-11T04:41:34;102578.06;;;5.78;88.95
75192;BME280;63771;52.580;9.734;2023-02-11T04:43:59;102570.47;;;5.78;88.86
75192;BME280;63771;52.580;9.734;2023-02-11T04:46:25;102574.16;;;5.80;89.13
75192;BME280;63771;52.580;9.734;2023-02-11T04:48:50;102576.88;;;5.82;88.95
75192;BME280;63771;52.580;9.734;2023-02-11T04:51:16;102573.81;;;5.84;88.86
75192;BME280;63771;52.580;9.734;2023-02-11T04:53:41;102586.69;;;5.86;88.82
75192;BME280;63771;52.580;9.734;2023-02-11T04:56:06;102589.00;;;5.84;89.06
75192;BME280;63771;52.580;9.734;2023-02-11T04:58:32;102583.44;;;5.87;88.73
75192;BME280;63771;52.580;9.734;2023-02-11T05:01:09;102584.53;;;5.89;88.54
75192;BME280;63771;52.580;9.734;2023-02-11T05:03:35;102570.97;;;5.88;89.05
75192;BME280;63771;52.580;9.734;2023-02-11T05:06:02;102576.75;;;5.87;89.03
75192;BME280;63771;52.580;9.734;2023-02-11T05:08:27;102567.84;;;5.84;89.10
75192;BME280;63771;52.580;9.734;2023-02-11T05:10:53;102575.53;;;5.91;88.88
75192;BME280;63771;52.580;9.734;2023-02-11T05:13:18;102583.38;;;5.92;88.66
75192;BME280;63771;52.580;9.734;2023-02-11T05:15:44;102595.81;;;5.91;88.64
75192;BME280;63771;52.580;9.734;2023-02-11T05:18:09;102591.69;;;5.91;89.04
75192;BME280;63771;52.580;9.734;2023-02-11T05:20:37;102591.69;;;5.91;88.99
75192;BME280;63771;52.580;9.734;2023-02-11T05:23:03;102580.19;;;5.88;88.87
75192;BME280;63771;52.580;9.734;2023-02-11T05:25:28;102586.09;;;5.94;88.82
75192;BME280;63771;52.580;9.734;2023-02-11T05:27:53;102574.56;;;5.96;88.65
75192;BME280;63771;52.580;9.734;2023-02-11T05:30:18;102580.91;;;5.99;88.51
75192;BME280;63771;52.580;9.734;2023-02-11T05:32:44;102571.69;;;6.00;88.48
75192;BME280;63771;52.580;9.734;2023-02-11T05:35:09;102577.47;;;5.99;88.53
75192;BME280;63771;52.580;9.734;2023-02-11T05:37:34;102571.69;;;6.00;88.62
75192;BME280;63771;52.580;9.734;2023-02-11T05:40:00;102579.09;;;5.98;88.63
75192;BME280;63771;52.580;9.734;2023-02-11T05:42:25;102572.22;;;5.97;88.60
75192;BME280;63771;52.580;9.734;2023-02-11T05:44:50;102571.31;;;5.97;88.75
75192;BME280;63771;52.580;9.734;2023-02-11T05:47:16;102566.59;;;6.00;88.41
75192;BME280;63771;52.580;9.734;2023-02-11T05:49:41;102564.31;;;6.01;88.24
75192;BME280;63771;52.580;9.734;2023-02-11T05:52:06;102552.34;;;6.00;88.35
75192;BME280;63771;52.580;9.734;2023-02-11T05:54:32;102562.69;;;6.02;88.22
75192;BME280;63771;52.580;9.734;2023-02-11T05:56:57;102563.59;;;6.03;88.31
75192;BME280;63771;52.580;9.734;2023-02-11T05:59:22;102563.59;;;6.03;88.45
75192;BME280;63771;52.580;9.734;2023-02-11T06:01:48;102564.69;;;6.05;88.11
75192;BME280;63771;52.580;9.734;2023-02-11T06:04:13;102557.31;;;6.06;88.51
75192;BME280;63771;52.580;9.734;2023-02-11T06:06:38;102559.59;;;6.05;88.22
75192;BME280;63771;52.580;9.734;2023-02-11T06:09:04;102559.13;;;6.07;87.97
75192;BME280;63771;52.580;9.734;2023-02-11T06:11:29;102563.28;;;6.07;88.04
75192;BME280;63771;52.580;9.734;2023-02-11T06:13:54;102566.91;;;6.09;88.20
75192;BME280;63771;52.580;9.734;2023-02-11T06:16:20;102569.63;;;6.10;88.03
75192;BME280;63771;52.580;9.734;2023-02-11T06:18:45;102566.00;;;6.08;88.14
75192;BME280;63771;52.580;9.734;2023-02-11T06:21:11;102561.84;;;6.09;88.27
75192;BME280;63771;52.580;9.734;2023-02-11T06:23:37;102561.34;;;6.11;88.13
75192;BME280;63771;52.580;9.734;2023-02-11T06:26:04;102560.63;;;6.12;88.22
75192;BME280;63771;52.580;9.734;2023-02-11T06:28:30;102567.69;;;6.15;87.93
75192;BME280;63771;52.580;9.734;2023-02-11T06:30:56;102569.13;;;6.13;88.23
75192;BME280;63771;52.580;9.734;2023-02-11T06:33:21;102564.84;;;6.19;87.80
75192;BME280;63771;52.580;9.734;2023-02-11T06:35:47;102576.59;;;6.18;88.07
75192;BME280;63771;52.580;9.734;2023-02-11T06:38:12;102575.50;;;6.16;87.88
75192;BME280;63771;52.580;9.734;2023-02-11T06:40:37;102570.63;;;6.18;87.86
75192;BME280;63771;52.580;9.734;2023-02-11T06:43:03;102578.22;;;6.18;87.96
75192;BME280;63771;52.580;9.734;2023-02-11T06:45:28;102573.34;;;6.19;88.08
75192;BME280;63771;52.580;9.734;2023-02-11T06:47:53;102573.94;;;6.24;87.68
75192;BME280;63771;52.580;9.734;2023-02-11T06:50:19;102579.19;;;6.25;87.64
75192;BME280;63771;52.580;9.734;2023-02-11T06:52:44;102584.28;;;6.25;87.75
75192;BME280;63771;52.580;9.734;2023-02-11T06:55:09;102585.91;;;6.25;87.95
75192;BME280;63771;52.580;9.734;2023-02-11T06:57:35;102590.06;;;6.24;88.03
75192;BME280;63771;52.580;9.734;2023-02-11T07:00:00;102595.53;;;6.27;87.66
75192;BME280;63771;52.580;9.734;2023-02-11T07:02:25;102589.56;;;6.27;87.81
75192;BME280;63771;52.580;9.734;2023-02-11T07:04:51;102593.00;;;6.27;87.68
75192;BME280;63771;52.580;9.734;2023-02-11T07:07:16;102598.78;;;6.26;88.13
75192;BME280;63771;52.580;9.734;2023-02-11T07:09:41;102585.41;;;6.27;88.29
75192;BME280;63771;52.580;9.734;2023-02-11T07:12:08;102575.25;;;6.27;88.38
75192;BME280;63771;52.580;9.734;2023-02-11T07:14:34;102585.91;;;6.25;88.45
75192;BME280;63771;52.580;9.734;2023-02-11T07:16:59;102562.00;;;6.23;88.32
75192;BME280;63771;52.580;9.734;2023-02-11T07:19:24;102577.97;;;6.29;88.11
75192;BME280;63771;52.580;9.734;2023-02-11T07:21:50;102568.75;;;6.30;88.32
75192;BME280;63771;52.580;9.734;2023-02-11T07:24:15;102572.00;;;6.28;88.26
75192;BME280;63771;52.580;9.734;2023-02-11T07:26:41;102571.28;;;6.30;88.35
75192;BME280;63771;52.580;9.734;2023-02-11T07:29:06;102574.22;;;6.33;88.32
75192;BME280;63771;52.580;9.734;2023-02-11T07:31:31;102570.56;;;6.31;88.58
75192;BME280;63771;52.580;9.734;2023-02-11T07:33:59;102575.25;;;6.27;88.95
75192;BME280;63771;52.580;9.734;2023-02-11T07:36:25;102570.19;;;6.27;89.65
75192;BME280;63771;52.580;9.734;2023-02-11T07:38:51;102581.75;;;6.25;90.11
75192;BME280;63771;52.580;9.734;2023-02-11T07:41:19;102586.81;;;6.25;90.59
75192;BME280;63771;52.580;9.734;2023-02-11T07:43:46;102593.72;;;6.26;90.22
75192;BME280;63771;52.580;9.734;2023-02-11T07:46:20;102596.94;;;6.25;90.15
75192;BME280;63771;52.580;9.734;2023-02-11T07:48:46;102602.13;;;6.33;90.23
75192;BME280;63771;52.580;9.734;2023-02-11T07:51:17;102597.03;;;6.33;89.95
75192;BME280;63771;52.580;9.734;2023-02-11T07:53:44;102597.09;;;6.40;89.81
75192;BME280;63771;52.580;9.734;2023-02-11T07:56:10;102595.88;;;6.43;89.51
75192;BME280;63771;52.580;9.734;2023-02-11T07:58:36;102597.88;;;6.46;89.47
75192;BME280;63771;52.580;9.734;2023-02-11T08:01:04;102590.81;;;6.43;89.30
75192;BME280;63771;52.580;9.734;2023-02-11T08:03:30;102596.06;;;6.45;89.20
75192;BME280;63771;52.580;9.734;2023-02-11T08:05:56;102603.88;;;6.46;89.48
75192;BME280;63771;52.580;9.734;2023-02-11T08:08:21;102602.78;;;6.44;89.53
75192;BME280;63771;52.580;9.734;2023-02-11T08:10:47;102593.84;;;6.41;89.43
75192;BME280;63771;52.580;9.734;2023-02-11T08:13:12;102598.00;;;6.40;90.02
75192;BME280;63771;52.580;9.734;2023-02-11T08:15:38;102600.72;;;6.42;89.71
75192;BME280;63771;52.580;9.734;2023-02-11T08:18:03;102605.81;;;6.42;90.10
75192;BME280;63771;52.580;9.734;2023-02-11T08:20:28;102607.44;;;6.41;89.99
75192;BME280;63771;52.580;9.734;2023-02-11T08:22:54;102620.69;;;6.46;89.53
75192;BME280;63771;52.580;9.734;2023-02-11T08:25:19;102634.28;;;6.46;89.49
75192;BME280;63771;52.580;9.734;2023-02-11T08:27:44;102619.31;;;6.48;89.45
75192;BME280;63771;52.580;9.734;2023-02-11T08:30:10;102631.06;;;6.47;89.92
75192;BME280;63771;52.580;9.734;2023-02-11T08:32:35;102642.81;;;6.47;89.72
75192;BME280;63771;52.580;9.734;2023-02-11T08:35:01;102625.19;;;6.41;89.75
75192;BME280;63771;52.580;9.734;2023-02-11T08:37:26;102627.03;;;6.42;90.08
75192;BME280;63771;52.580;9.734;2023-02-11T08:39:52;102625.06;;;6.47;89.73
75192;BME280;63771;52.580;9.734;2023-02-11T08:42:17;102639.16;;;6.45;89.99
75192;BME280;63771;52.580;9.734;2023-02-11T08:44:42;102651.53;;;6.49;89.88
75192;BME280;63771;52.580;9.734;2023-02-11T08:47:08;102637.94;;;6.48;89.85
75192;BME280;63771;52.580;9.734;2023-02-11T08:49:33;102641.22;;;6.67;89.99
75192;BME280;63771;52.580;9.734;2023-02-11T08:51:59;102643.44;;;6.71;89.19
75192;BME280;63771;52.580;9.734;2023-02-11T08:54:31;102637.97;;;6.68;89.30
75192;BME280;63771;52.580;9.734;2023-02-11T08:56:56;102634.25;;;6.59;89.43
75192;BME280;63771;52.580;9.734;2023-02-11T08:59:22;102633.84;;;6.56;89.73
75192;BME280;63771;52.580;9.734;2023-02-11T09:01:47;102648.16;;;6.56;90.01
75192;BME280;63771;52.580;9.734;2023-02-11T09:04:13;102649.97;;;6.57;89.63
75192;BME280;63771;52.580;9.734;2023-02-11T09:06:38;102660.53;;;6.60;89.79
75192;BME280;63771;52.580;9.734;2023-02-11T09:09:04;102669.66;;;6.52;90.09
75192;BME280;63771;52.580;9.734;2023-02-11T09:11:32;102655.56;;;6.54;90.15
75192;BME280;63771;52.580;9.734;2023-02-11T09:13:58;102649.38;;;6.52;90.31
75192;BME280;63771;52.580;9.734;2023-02-11T09:16:28;102653.16;;;6.48;90.42
75192;BME280;63771;52.580;9.734;2023-02-11T09:18:59;102660.25;;;6.51;90.32
75192;BME280;63771;52.580;9.734;2023-02-11T09:21:25;102659.53;;;6.52;90.16
75192;BME280;63771;52.580;9.734;2023-02-11T09:23:50;102653.03;;;6.54;90.42
75192;BME280;63771;52.580;9.734;2023-02-11T09:26:22;102672.91;;;6.51;90.45
75192;BME280;63771;52.580;9.734;2023-02-11T09:28:49;102679.13;;;6.53;90.05
75192;BME280;63771;52.580;9.734;2023-02-11T09:31:17;102678.53;;;6.48;90.49
75192;BME280;63771;52.580;9.734;2023-02-11T09:33:45;102664.03;;;6.47;90.95
75192;BME280;63771;52.580;9.734;2023-02-11T09:36:16;102679.13;;;6.53;90.74
75192;BME280;63771;52.580;9.734;2023-02-11T09:38:42;102678.72;;;6.50;91.04
75192;BME280;63771;52.580;9.734;2023-02-11T09:43:50;102694.34;;;6.53;91.08
75192;BME280;63771;52.580;9.734;2023-02-11T09:46:17;102689.94;;;6.52;91.12
75192;BME280;63771;52.580;9.734;2023-02-11T09:48:45;102701.22;;;6.54;91.15
75192;BME280;63771;52.580;9.734;2023-02-11T09:51:19;102692.72;;;6.53;91.04
75192;BME280;63771;52.580;9.734;2023-02-11T09:53:50;102705.97;;;6.58;91.02
75192;BME280;63771;52.580;9.734;2023-02-11T09:56:20;102712.56;;;6.63;91.01
75192;BME280;63771;52.580;9.734;2023-02-11T09:58:46;102711.44;;;6.61;91.06
75192;BME280;63771;52.580;9.734;2023-02-11T10:01:41;102716.91;;;6.64;90.89
75192;BME280;63771;52.580;9.734;2023-02-11T10:07:24;102704.47;;;6.73;90.49
75192;BME280;63771;52.580;9.734;2023-02-11T10:10:19;102703.50;;;6.65;90.91
75192;BME280;63771;52.580;9.734;2023-02-11T10:15:41;102716.97;;;6.71;90.64
75192;BME280;63771;52.580;9.734;2023-02-11T10:24:01;102726.50;;;6.79;90.43
75192;BME280;63771;52.580;9.734;2023-02-11T10:26:30;102733.72;;;6.76;90.66
75192;BME280;63771;52.580;9.734;2023-02-11T10:28:59;102740.94;;;6.73;90.99
75192;BME280;63771;52.580;9.734;2023-02-11T10:31:36;102734.75;;;6.71;91.06
75192;BME280;63771;52.580;9.734;2023-02-11T10:34:07;102731.47;;;6.72;91.10
75192;BME280;63771;52.580;9.734;2023-02-11T10:36:35;102740.22;;;6.74;91.18
75192;BME280;63771;52.580;9.734;2023-02-11T10:39:11;102740.22;;;6.74;91.14
75192;BME280;63771;52.580;9.734;2023-02-11T10:41:40;102737.47;;;6.73;91.29
75192;BME280;63771;52.580;9.734;2023-02-11T10:44:07;102733.72;;;6.76;91.19
75192;BME280;63771;52.580;9.734;2023-02-11T10:46:40;102743.53;;;6.80;91.20
75192;BME280;63771;52.580;9.734;2023-02-11T10:49:06;102746.47;;;6.84;90.76
75192;BME280;63771;52.580;9.734;2023-02-11T10:51:32;102758.44;;;6.85;90.94
75192;BME280;63771;52.580;9.734;2023-02-11T10:56:25;102751.94;;;6.87;91.07
75192;BME280;63771;52.580;9.734;2023-02-11T10:59:00;102751.94;;;6.87;91.25
75192;BME280;63771;52.580;9.734;2023-02-11T11:02:01;102756.41;;;6.95;91.41
75192;BME280;63771;52.580;9.734;2023-02-11T11:07:01;102743.03;;;7.03;90.49
75192;BME280;63771;52.580;9.734;2023-02-11T11:10:00;102750.66;;;7.03;90.64
75192;BME280;63771;52.580;9.734;2023-02-11T11:12:32;102744.22;;;7.12;90.62
75192;BME280;63771;52.580;9.734;2023-02-11T11:15:21;102756.78;;;7.18;89.91
75192;BME280;63771;52.580;9.734;2023-02-11T11:18:08;102759.47;;;7.12;90.17
75192;BME280;63771;52.580;9.734;2023-02-11T11:20:34;102748.72;;;7.07;90.55
75192;BME280;63771;52.580;9.734;2023-02-11T11:23:22;102729.44;;;7.02;90.66
75192;BME280;63771;52.580;9.734;2023-02-11T11:26:18;102735.63;;;7.04;91.13
75192;BME280;63771;52.580;9.734;2023-02-11T11:31:55;102734.06;;;6.92;92.14
75192;BME280;63771;52.580;9.734;2023-02-11T11:34:35;102742.19;;;6.90;92.08
75192;BME280;63771;52.580;9.734;2023-02-11T11:37:19;102733.88;;;6.91;92.38
75192;BME280;63771;52.580;9.734;2023-02-11T11:40:07;102741.34;;;6.96;92.00
75192;BME280;63771;52.580;9.734;2023-02-11T11:42:35;102747.22;;;7.02;91.80
75192;BME280;63771;52.580;9.734;2023-02-11T11:47:51;102740.44;;;6.96;92.44
75192;BME280;63771;52.580;9.734;2023-02-11T11:50:48;102745.78;;;7.04;92.02
75192;BME280;63771;52.580;9.734;2023-02-11T11:56:00;102745.59;;;7.03;92.13
75192;BME280;63771;52.580;9.734;2023-02-11T11:58:28;102748.31;;;7.04;92.38
75192;BME280;63771;52.580;9.734;2023-02-11T12:07:05;102740.25;;;6.94;93.09
75192;BME280;63771;52.580;9.734;2023-02-11T12:10:03;102726.91;;;7.02;92.64
75192;BME280;63771;52.580;9.734;2023-02-11T12:13:12;102736.88;;;7.01;92.88
75192;BME280;63771;52.580;9.734;2023-02-11T12:16:06;102735.63;;;7.04;92.78
75192;BME280;63771;52.580;9.734;2023-02-11T12:24:11;102747.41;;;7.04;92.92
75192;BME280;63771;52.580;9.734;2023-02-11T12:29:54;102752.69;;;7.05;92.92
75192;BME280;63771;52.580;9.734;2023-02-11T12:35:27;102746.00;;;7.06;93.21
75192;BME280;63771;52.580;9.734;2023-02-11T12:38:24;102751.06;;;7.06;92.92
75192;BME280;63771;52.580;9.734;2023-02-11T12:41:11;102740.69;;;7.04;92.99
75192;BME280;63771;52.580;9.734;2023-02-11T12:43:41;102743.44;;;7.06;93.31
75192;BME280;63771;52.580;9.734;2023-02-11T12:46:31;102741.81;;;7.06;93.01
75192;BME280;63771;52.580;9.734;2023-02-11T12:54:58;102740.38;;;7.09;93.34
75192;BME280;63771;52.580;9.734;2023-02-11T12:57:33;102722.84;;;7.10;93.28
75192;BME280;63771;52.580;9.734;2023-02-11T13:00:14;102731.13;;;7.09;93.12
75192;BME280;63771;52.580;9.734;2023-02-11T13:05:48;102729.00;;;7.12;93.06
75192;BME280;63771;52.580;9.734;2023-02-11T13:10:49;102736.94;;;7.08;93.44
75192;BME280;63771;52.580;9.734;2023-02-11T13:13:21;102744.03;;;7.11;93.21
75192;BME280;63771;52.580;9.734;2023-02-11T13:16:07;102743.13;;;7.10;93.32
75192;BME280;63771;52.580;9.734;2023-02-11T13:19:00;102750.03;;;7.11;93.28
75192;BME280;63771;52.580;9.734;2023-02-11T13:21:47;102759.78;;;7.08;93.64
75192;BME280;63771;52.580;9.734;2023-02-11T13:27:03;102734.22;;;7.06;93.94
75192;BME280;63771;52.580;9.734;2023-02-11T13:30:07;102749.63;;;7.08;93.39
75192;BME280;63771;52.580;9.734;2023-02-11T13:35:48;102750.03;;;7.11;93.52
75192;BME280;63771;52.580;9.734;2023-02-11T13:38:34;102743.13;;;7.10;93.33
75192;BME280;63771;52.580;9.734;2023-02-11T13:43:38;102748.47;;;7.19;93.26
75192;BME280;63771;52.580;9.734;2023-02-11T13:46:06;102754.66;;;7.21;92.95
75192;BME280;63771;52.580;9.734;2023-02-11T13:48:36;102741.44;;;7.23;92.77
75192;BME280;63771;52.580;9.734;2023-02-11T13:51:07;102723.84;;;7.25;93.00
75192;BME280;63771;52.580;9.734;2023-02-11T13:53:48;102732.72;;;7.21;93.28
75192;BME280;63771;52.580;9.734;2023-02-11T13:56:27;102749.06;;;7.23;93.20
75192;BME280;63771;52.580;9.734;2023-02-11T13:58:53;102745.06;;;7.25;93.18
75192;BME280;63771;52.580;9.734;2023-02-11T14:10:59;102763.44;;;7.30;93.23
75192;BME280;63771;52.580;9.734;2023-02-11T14:13:33;102765.66;;;7.34;92.98
75192;BME280;63771;52.580;9.734;2023-02-11T14:16:25;102777.25;;;7.32;93.10
75192;BME280;63771;52.580;9.734;2023-02-11T14:23:47;102780.69;;;7.32;93.17
75192;BME280;63771;52.580;9.734;2023-02-11T14:31:34;102784.00;;;7.39;92.58
75192;BME280;63771;52.580;9.734;2023-02-11T14:37:01;102773.53;;;7.43;92.67
75192;BME280;63771;52.580;9.734;2023-02-11T14:39:59;102772.28;;;7.46;92.69
75192;BME280;63771;52.580;9.734;2023-02-11T14:42:28;102774.25;;;7.42;92.81
75192;BME280;63771;52.580;9.734;2023-02-11T14:44:57;102776.66;;;7.47;92.48
75192;BME280;63771;52.580;9.734;2023-02-11T14:47:39;102763.06;;;7.47;92.40
75192;BME280;63771;52.580;9.734;2023-02-11T14:50:16;102787.41;;;7.52;92.33
75192;BME280;63771;52.580;9.734;2023-02-11T14:52:43;102783.44;;;7.54;92.18
75192;BME280;63771;52.580;9.734;2023-02-11T14:55:30;102780.75;;;7.59;91.79
75192;BME280;63771;52.580;9.734;2023-02-11T14:58:27;102791.97;;;7.54;92.06
75192;BME280;63771;52.580;9.734;2023-02-11T15:00:59;102801.22;;;7.54;92.31
75192;BME280;63771;52.580;9.734;2023-02-11T15:08:31;102800.88;;;7.58;92.08
75192;BME280;63771;52.580;9.734;2023-02-11T15:10:57;102804.84;;;7.56;92.34
75192;BME280;63771;52.580;9.734;2023-02-11T15:13:26;102799.97;;;7.57;92.19
75192;BME280;63771;52.580;9.734;2023-02-11T15:15:59;102819.56;;;7.58;92.04
75192;BME280;63771;52.580;9.734;2023-02-11T15:18:32;102814.31;;;7.57;92.21